sensor_id;sensor_type;location;lat;lon;timestamp;P1;durP1;ratioP1;P2;durP2;ratioP2
20734;SDS011;10528;52.124;5.196;2023-05-07T00:01:21;16.40;;;14.38;;
20734;SDS011;10528;52.124;5.196;2023-05-07T00:03:48;23.88;;;15.38;;
20734;SDS011;10528;52.124;5.196;2023-05-07T00:06:15;15.77;;;13.50;;
20734;SDS011;10528;52.124;5.196;2023-05-07T00:08:42;20.55;;;14.52;;
20734;SDS011;10528;52.124;5.196;2023-05-07T00:11:09;18.75;;;13.23;;
20734;SDS011;10528;52.124;5.196;2023-05-07T00:13:36;16.95;;;13.85;;
20734;SDS011;10528;52.124;5.196;2023-05-07T00:16:03;17.83;;;13.80;;
20734;SDS011;10528;52.124;5.196;2023-05-07T00:18:30;16.45;;;12.50;;
20734;SDS011;10528;52.124;5.196;2023-05-07T00:20:57;16.00;;;12.48;;
20734;SDS011;10528;52.124;5.196;2023-05-07T00:23:24;16.40;;;12.57;;
20734;SDS011;10528;52.124;5.196;2023-05-07T00:25:51;15.88;;;12.27;;
20734;SDS011;10528;52.124;5.196;2023-05-07T00:28:17;15.77;;;12.20;;
20734;SDS011;10528;52.124;5.196;2023-05-07T00:30:44;16.42;;;11.98;;
20734;SDS011;10528;52.124;5.196;2023-05-07T00:33:11;14.48;;;11.60;;
20734;SDS011;10528;52.124;5.196;2023-05-07T00:35:38;13.98;;;10.93;;
20734;SDS011;10528;52.124;5.196;2023-05-07T00:38:05;12.65;;;10.88;;
20734;SDS011;10528;52.124;5.196;2023-05-07T00:40:32;13.18;;;10.25;;
20734;SDS011;10528;52.124;5.196;2023-05-07T00:42:58;12.45;;;10.27;;
20734;SDS011;10528;52.124;5.196;2023-05-07T00:45:26;10.93;;;9.82;;
20734;SDS011;10528;52.124;5.196;2023-05-07T00:47:55;13.35;;;9.82;;
20734;SDS011;10528;52.124;5.196;2023-05-07T00:50:24;10.23;;;9.18;;
20734;SDS011;10528;52.124;5.196;2023-05-07T00:52:53;11.48;;;9.77;;
20734;SDS011;10528;52.124;5.196;2023-05-07T00:55:21;10.93;;;9.30;;
20734;SDS011;10528;52.124;5.196;2023-05-07T00:57:50;12.30;;;9.48;;
20734;SDS011;10528;52.124;5.196;2023-05-07T01:00:17;11.40;;;9.80;;
20734;SDS011;10528;52.124;5.196;2023-05-07T01:02:45;10.65;;;8.82;;
20734;SDS011;10528;52.124;5.196;2023-05-07T01:05:14;9.38;;;8.40;;
20734;SDS011;10528;52.124;5.196;2023-05-07T01:07:45;13.45;;;9.25;;
20734;SDS011;10528;52.124;5.196;2023-05-07T01:10:13;11.88;;;8.80;;
20734;SDS011;10528;52.124;5.196;2023-05-07T01:12:41;10.32;;;8.65;;
20734;SDS011;10528;52.124;5.196;2023-05-07T01:15:10;10.10;;;8.18;;
20734;SDS011;10528;52.124;5.196;2023-05-07T01:17:38;9.73;;;8.55;;
20734;SDS011;10528;52.124;5.196;2023-05-07T01:20:13;9.57;;;8.07;;
20734;SDS011;10528;52.124;5.196;2023-05-07T01:22:41;9.15;;;8.15;;
20734;SDS011;10528;52.124;5.196;2023-05-07T01:25:10;10.43;;;8.45;;
20734;SDS011;10528;52.124;5.196;2023-05-07T01:27:41;9.20;;;7.75;;
20734;SDS011;10528;52.124;5.196;2023-05-07T01:30:08;9.95;;;7.68;;
20734;SDS011;10528;52.124;5.196;2023-05-07T01:32:43;10.63;;;8.57;;
20734;SDS011;10528;52.124;5.196;2023-05-07T01:35:29;10.30;;;8.23;;
20734;SDS011;10528;52.124;5.196;2023-05-07T01:38:04;10.15;;;8.63;;
20734;SDS011;10528;52.124;5.196;2023-05-07T01:40:32;10.80;;;8.68;;
20734;SDS011;10528;52.124;5.196;2023-05-07T01:43:02;11.85;;;8.60;;
20734;SDS011;10528;52.124;5.196;2023-05-07T01:45:31;9.48;;;8.52;;
20734;SDS011;10528;52.124;5.196;2023-05-07T01:47:58;12.88;;;8.75;;
20734;SDS011;10528;52.124;5.196;2023-05-07T01:50:26;12.13;;;8.02;;
20734;SDS011;10528;52.124;5.196;2023-05-07T01:52:54;9.30;;;8.02;;
20734;SDS011;10528;52.124;5.196;2023-05-07T01:55:22;10.32;;;8.70;;
20734;SDS011;10528;52.124;5.196;2023-05-07T01:57:49;9.00;;;7.65;;
20734;SDS011;10528;52.124;5.196;2023-05-07T02:00:17;11.18;;;7.68;;
20734;SDS011;10528;52.124;5.196;2023-05-07T02:02:45;11.05;;;8.32;;
20734;SDS011;10528;52.124;5.196;2023-05-07T02:05:24;9.13;;;7.55;;
20734;SDS011;10528;52.124;5.196;2023-05-07T02:07:58;8.82;;;7.93;;
20734;SDS011;10528;52.124;5.196;2023-05-07T02:10:26;11.15;;;7.78;;
20734;SDS011;10528;52.124;5.196;2023-05-07T02:12:53;10.70;;;7.65;;
20734;SDS011;10528;52.124;5.196;2023-05-07T02:15:20;8.50;;;7.53;;
20734;SDS011;10528;52.124;5.196;2023-05-07T02:18:06;10.95;;;7.70;;
20734;SDS011;10528;52.124;5.196;2023-05-07T02:20:35;9.50;;;8.05;;
20734;SDS011;10528;52.124;5.196;2023-05-07T02:23:02;9.20;;;7.60;;
20734;SDS011;10528;52.124;5.196;2023-05-07T02:25:29;10.35;;;7.72;;
20734;SDS011;10528;52.124;5.196;2023-05-07T02:27:57;8.40;;;7.43;;
20734;SDS011;10528;52.124;5.196;2023-05-07T02:30:34;8.48;;;7.25;;
20734;SDS011;10528;52.124;5.196;2023-05-07T02:33:01;9.40;;;8.05;;
20734;SDS011;10528;52.124;5.196;2023-05-07T02:35:28;9.05;;;8.13;;
20734;SDS011;10528;52.124;5.196;2023-05-07T02:37:55;9.30;;;7.45;;
20734;SDS011;10528;52.124;5.196;2023-05-07T02:40:24;8.90;;;7.25;;
20734;SDS011;10528;52.124;5.196;2023-05-07T02:42:51;10.73;;;7.97;;
20734;SDS011;10528;52.124;5.196;2023-05-07T02:45:18;9.98;;;7.93;;
20734;SDS011;10528;52.124;5.196;2023-05-07T02:47:46;9.95;;;7.93;;
20734;SDS011;10528;52.124;5.196;2023-05-07T02:50:13;10.52;;;7.82;;
20734;SDS011;10528;52.124;5.196;2023-05-07T02:52:40;10.10;;;7.95;;
20734;SDS011;10528;52.124;5.196;2023-05-07T02:55:07;9.27;;;7.68;;
20734;SDS011;10528;52.124;5.196;2023-05-07T02:57:35;9.15;;;7.95;;
20734;SDS011;10528;52.124;5.196;2023-05-07T03:00:15;10.98;;;7.85;;
20734;SDS011;10528;52.124;5.196;2023-05-07T03:02:52;10.45;;;8.00;;
20734;SDS011;10528;52.124;5.196;2023-05-07T03:05:19;9.32;;;7.97;;
20734;SDS011;10528;52.124;5.196;2023-05-07T03:07:46;9.23;;;8.32;;
20734;SDS011;10528;52.124;5.196;2023-05-07T03:10:13;8.95;;;8.05;;
20734;SDS011;10528;52.124;5.196;2023-05-07T03:12:41;9.30;;;8.20;;
20734;SDS011;10528;52.124;5.196;2023-05-07T03:15:10;9.45;;;7.88;;
20734;SDS011;10528;52.124;5.196;2023-05-07T03:17:40;11.32;;;8.57;;
20734;SDS011;10528;52.124;5.196;2023-05-07T03:20:07;10.50;;;8.35;;
20734;SDS011;10528;52.124;5.196;2023-05-07T03:22:36;9.32;;;7.95;;
20734;SDS011;10528;52.124;5.196;2023-05-07T03:25:03;9.38;;;8.05;;
20734;SDS011;10528;52.124;5.196;2023-05-07T03:27:31;9.93;;;7.93;;
20734;SDS011;10528;52.124;5.196;2023-05-07T03:29:59;9.60;;;8.38;;
20734;SDS011;10528;52.124;5.196;2023-05-07T03:32:26;11.15;;;8.23;;
20734;SDS011;10528;52.124;5.196;2023-05-07T03:34:53;10.40;;;8.15;;
20734;SDS011;10528;52.124;5.196;2023-05-07T03:37:20;10.23;;;8.55;;
20734;SDS011;10528;52.124;5.196;2023-05-07T03:39:48;9.25;;;8.25;;
20734;SDS011;10528;52.124;5.196;2023-05-07T03:42:15;10.43;;;8.10;;
20734;SDS011;10528;52.124;5.196;2023-05-07T03:44:42;9.32;;;8.23;;
20734;SDS011;10528;52.124;5.196;2023-05-07T03:47:09;9.88;;;7.68;;
20734;SDS011;10528;52.124;5.196;2023-05-07T03:49:36;9.90;;;7.68;;
20734;SDS011;10528;52.124;5.196;2023-05-07T03:52:04;10.02;;;8.45;;
20734;SDS011;10528;52.124;5.196;2023-05-07T03:54:32;10.05;;;8.10;;
20734;SDS011;10528;52.124;5.196;2023-05-07T03:56:59;10.05;;;8.88;;
20734;SDS011;10528;52.124;5.196;2023-05-07T03:59:26;10.15;;;9.00;;
20734;SDS011;10528;52.124;5.196;2023-05-07T04:01:53;10.38;;;9.30;;
20734;SDS011;10528;52.124;5.196;2023-05-07T04:04:22;11.13;;;10.02;;
20734;SDS011;10528;52.124;5.196;2023-05-07T04:06:49;13.13;;;11.07;;
20734;SDS011;10528;52.124;5.196;2023-05-07T04:09:16;12.35;;;11.05;;
20734;SDS011;10528;52.124;5.196;2023-05-07T04:11:45;13.82;;;11.07;;
20734;SDS011;10528;52.124;5.196;2023-05-07T04:14:11;11.85;;;10.43;;
20734;SDS011;10528;52.124;5.196;2023-05-07T04:16:38;13.20;;;11.05;;
20734;SDS011;10528;52.124;5.196;2023-05-07T04:19:06;13.23;;;11.82;;
20734;SDS011;10528;52.124;5.196;2023-05-07T04:21:34;13.23;;;11.60;;
20734;SDS011;10528;52.124;5.196;2023-05-07T04:24:02;14.30;;;12.23;;
20734;SDS011;10528;52.124;5.196;2023-05-07T04:26:30;14.30;;;12.23;;
20734;SDS011;10528;52.124;5.196;2023-05-07T04:28:57;13.75;;;12.35;;
20734;SDS011;10528;52.124;5.196;2023-05-07T04:31:29;14.85;;;12.35;;
20734;SDS011;10528;52.124;5.196;2023-05-07T04:33:57;14.23;;;12.75;;
20734;SDS011;10528;52.124;5.196;2023-05-07T04:36:24;15.23;;;12.85;;
20734;SDS011;10528;52.124;5.196;2023-05-07T04:38:59;16.35;;;13.15;;
20734;SDS011;10528;52.124;5.196;2023-05-07T04:41:28;14.43;;;12.43;;
20734;SDS011;10528;52.124;5.196;2023-05-07T04:43:55;15.18;;;13.57;;
20734;SDS011;10528;52.124;5.196;2023-05-07T04:46:23;18.20;;;13.43;;
20734;SDS011;10528;52.124;5.196;2023-05-07T04:48:52;14.90;;;13.30;;
20734;SDS011;10528;52.124;5.196;2023-05-07T04:51:19;15.30;;;13.48;;
20734;SDS011;10528;52.124;5.196;2023-05-07T04:53:46;15.45;;;13.07;;
20734;SDS011;10528;52.124;5.196;2023-05-07T04:56:13;15.75;;;13.60;;
20734;SDS011;10528;52.124;5.196;2023-05-07T04:58:42;15.52;;;13.25;;
20734;SDS011;10528;52.124;5.196;2023-05-07T05:01:10;17.33;;;13.60;;
20734;SDS011;10528;52.124;5.196;2023-05-07T05:03:37;15.38;;;13.85;;
20734;SDS011;10528;52.124;5.196;2023-05-07T05:06:06;18.30;;;14.80;;
20734;SDS011;10528;52.124;5.196;2023-05-07T05:08:33;14.35;;;12.93;;
20734;SDS011;10528;52.124;5.196;2023-05-07T05:11:02;15.55;;;13.85;;
20734;SDS011;10528;52.124;5.196;2023-05-07T05:13:30;15.18;;;13.45;;
20734;SDS011;10528;52.124;5.196;2023-05-07T05:15:59;15.35;;;13.20;;
20734;SDS011;10528;52.124;5.196;2023-05-07T05:18:28;18.25;;;13.50;;
20734;SDS011;10528;52.124;5.196;2023-05-07T05:20:54;16.15;;;12.82;;
20734;SDS011;10528;52.124;5.196;2023-05-07T05:23:22;16.02;;;13.75;;
20734;SDS011;10528;52.124;5.196;2023-05-07T05:25:49;16.15;;;14.48;;
20734;SDS011;10528;52.124;5.196;2023-05-07T05:28:16;15.60;;;13.23;;
20734;SDS011;10528;52.124;5.196;2023-05-07T05:30:43;15.75;;;14.02;;
20734;SDS011;10528;52.124;5.196;2023-05-07T05:33:10;15.27;;;13.63;;
20734;SDS011;10528;52.124;5.196;2023-05-07T05:35:37;15.95;;;13.05;;
20734;SDS011;10528;52.124;5.196;2023-05-07T05:38:08;14.63;;;12.82;;
20734;SDS011;10528;52.124;5.196;2023-05-07T05:40:37;14.88;;;13.00;;
20734;SDS011;10528;52.124;5.196;2023-05-07T05:43:04;14.50;;;12.82;;
20734;SDS011;10528;52.124;5.196;2023-05-07T05:45:32;15.27;;;13.52;;
20734;SDS011;10528;52.124;5.196;2023-05-07T05:47:59;14.02;;;12.02;;
20734;SDS011;10528;52.124;5.196;2023-05-07T05:50:27;16.50;;;13.15;;
20734;SDS011;10528;52.124;5.196;2023-05-07T05:52:54;14.57;;;13.00;;
20734;SDS011;10528;52.124;5.196;2023-05-07T05:55:21;15.15;;;13.23;;
20734;SDS011;10528;52.124;5.196;2023-05-07T05:57:48;15.32;;;12.77;;
20734;SDS011;10528;52.124;5.196;2023-05-07T06:00:16;16.27;;;13.68;;
20734;SDS011;10528;52.124;5.196;2023-05-07T06:02:45;14.68;;;13.02;;
20734;SDS011;10528;52.124;5.196;2023-05-07T06:05:19;15.30;;;13.50;;
20734;SDS011;10528;52.124;5.196;2023-05-07T06:07:49;16.23;;;13.68;;
20734;SDS011;10528;52.124;5.196;2023-05-07T06:10:16;14.88;;;12.77;;
20734;SDS011;10528;52.124;5.196;2023-05-07T06:12:44;15.88;;;13.20;;
20734;SDS011;10528;52.124;5.196;2023-05-07T06:15:11;16.95;;;13.88;;
20734;SDS011;10528;52.124;5.196;2023-05-07T06:17:39;16.02;;;12.85;;
20734;SDS011;10528;52.124;5.196;2023-05-07T06:20:08;16.55;;;13.50;;
20734;SDS011;10528;52.124;5.196;2023-05-07T06:22:37;15.57;;;13.20;;
20734;SDS011;10528;52.124;5.196;2023-05-07T06:25:04;15.18;;;13.15;;
20734;SDS011;10528;52.124;5.196;2023-05-07T06:27:32;16.95;;;13.32;;
20734;SDS011;10528;52.124;5.196;2023-05-07T06:29:59;18.20;;;14.10;;
20734;SDS011;10528;52.124;5.196;2023-05-07T06:32:26;16.60;;;14.20;;
20734;SDS011;10528;52.124;5.196;2023-05-07T06:34:54;17.55;;;15.20;;
20734;SDS011;10528;52.124;5.196;2023-05-07T06:37:21;16.35;;;13.48;;
20734;SDS011;10528;52.124;5.196;2023-05-07T06:39:54;16.73;;;13.38;;
20734;SDS011;10528;52.124;5.196;2023-05-07T06:42:25;15.75;;;12.85;;
20734;SDS011;10528;52.124;5.196;2023-05-07T06:44:57;15.85;;;13.20;;
20734;SDS011;10528;52.124;5.196;2023-05-07T06:47:25;18.15;;;13.32;;
20734;SDS011;10528;52.124;5.196;2023-05-07T06:49:53;17.42;;;13.23;;
20734;SDS011;10528;52.124;5.196;2023-05-07T06:52:24;16.05;;;13.68;;
20734;SDS011;10528;52.124;5.196;2023-05-07T06:54:51;17.33;;;14.30;;
20734;SDS011;10528;52.124;5.196;2023-05-07T06:57:20;19.15;;;13.82;;
20734;SDS011;10528;52.124;5.196;2023-05-07T06:59:48;17.20;;;14.70;;
20734;SDS011;10528;52.124;5.196;2023-05-07T07:02:15;16.65;;;13.73;;
20734;SDS011;10528;52.124;5.196;2023-05-07T07:04:44;17.80;;;14.15;;
20734;SDS011;10528;52.124;5.196;2023-05-07T07:07:12;16.55;;;13.32;;
20734;SDS011;10528;52.124;5.196;2023-05-07T07:09:41;18.10;;;13.73;;
20734;SDS011;10528;52.124;5.196;2023-05-07T07:12:09;16.05;;;13.70;;
20734;SDS011;10528;52.124;5.196;2023-05-07T07:14:38;17.92;;;14.98;;
20734;SDS011;10528;52.124;5.196;2023-05-07T07:17:05;16.17;;;13.70;;
20734;SDS011;10528;52.124;5.196;2023-05-07T07:19:32;17.42;;;14.93;;
20734;SDS011;10528;52.124;5.196;2023-05-07T07:22:01;20.15;;;13.70;;
20734;SDS011;10528;52.124;5.196;2023-05-07T07:24:28;17.75;;;14.57;;
20734;SDS011;10528;52.124;5.196;2023-05-07T07:26:59;17.63;;;14.68;;
20734;SDS011;10528;52.124;5.196;2023-05-07T07:29:27;15.60;;;13.50;;
20734;SDS011;10528;52.124;5.196;2023-05-07T07:31:54;16.42;;;14.35;;
20734;SDS011;10528;52.124;5.196;2023-05-07T07:34:21;18.85;;;15.23;;
20734;SDS011;10528;52.124;5.196;2023-05-07T07:36:49;17.38;;;14.10;;
20734;SDS011;10528;52.124;5.196;2023-05-07T07:39:17;15.13;;;13.18;;
20734;SDS011;10528;52.124;5.196;2023-05-07T07:41:46;15.73;;;13.13;;
20734;SDS011;10528;52.124;5.196;2023-05-07T07:44:14;16.13;;;12.85;;
20734;SDS011;10528;52.124;5.196;2023-05-07T07:46:45;14.43;;;12.90;;
20734;SDS011;10528;52.124;5.196;2023-05-07T07:49:13;13.63;;;11.68;;
20734;SDS011;10528;52.124;5.196;2023-05-07T07:51:42;14.50;;;12.13;;
20734;SDS011;10528;52.124;5.196;2023-05-07T07:54:10;14.45;;;12.10;;
20734;SDS011;10528;52.124;5.196;2023-05-07T07:56:38;16.02;;;12.98;;
20734;SDS011;10528;52.124;5.196;2023-05-07T07:59:06;14.75;;;12.60;;
20734;SDS011;10528;52.124;5.196;2023-05-07T08:01:36;15.27;;;12.68;;
20734;SDS011;10528;52.124;5.196;2023-05-07T08:04:03;15.20;;;12.10;;
20734;SDS011;10528;52.124;5.196;2023-05-07T08:06:35;15.20;;;13.32;;
20734;SDS011;10528;52.124;5.196;2023-05-07T08:09:02;14.77;;;12.32;;
20734;SDS011;10528;52.124;5.196;2023-05-07T08:11:29;15.25;;;12.95;;
20734;SDS011;10528;52.124;5.196;2023-05-07T08:13:57;15.75;;;12.85;;
20734;SDS011;10528;52.124;5.196;2023-05-07T08:16:24;15.38;;;13.77;;
20734;SDS011;10528;52.124;5.196;2023-05-07T08:18:52;15.82;;;13.77;;
20734;SDS011;10528;52.124;5.196;2023-05-07T08:21:19;19.88;;;14.48;;
20734;SDS011;10528;52.124;5.196;2023-05-07T08:23:46;16.85;;;13.65;;
20734;SDS011;10528;52.124;5.196;2023-05-07T08:26:13;15.30;;;13.00;;
20734;SDS011;10528;52.124;5.196;2023-05-07T08:28:41;17.27;;;14.55;;
20734;SDS011;10528;52.124;5.196;2023-05-07T08:31:07;15.32;;;13.70;;
20734;SDS011;10528;52.124;5.196;2023-05-07T08:33:37;15.90;;;14.30;;
20734;SDS011;10528;52.124;5.196;2023-05-07T08:36:04;15.48;;;13.88;;
20734;SDS011;10528;52.124;5.196;2023-05-07T08:38:32;15.98;;;14.00;;
20734;SDS011;10528;52.124;5.196;2023-05-07T08:40:59;17.13;;;13.55;;
20734;SDS011;10528;52.124;5.196;2023-05-07T08:43:28;17.02;;;13.50;;
20734;SDS011;10528;52.124;5.196;2023-05-07T08:45:59;16.77;;;14.70;;
20734;SDS011;10528;52.124;5.196;2023-05-07T08:48:32;15.30;;;13.05;;
20734;SDS011;10528;52.124;5.196;2023-05-07T08:51:13;15.10;;;13.20;;
20734;SDS011;10528;52.124;5.196;2023-05-07T08:53:45;15.90;;;14.20;;
20734;SDS011;10528;52.124;5.196;2023-05-07T08:56:19;16.80;;;13.68;;
20734;SDS011;10528;52.124;5.196;2023-05-07T08:58:49;15.35;;;12.77;;
20734;SDS011;10528;52.124;5.196;2023-05-07T09:01:17;17.08;;;12.93;;
20734;SDS011;10528;52.124;5.196;2023-05-07T09:03:49;16.27;;;12.65;;
20734;SDS011;10528;52.124;5.196;2023-05-07T09:06:17;15.60;;;12.90;;
20734;SDS011;10528;52.124;5.196;2023-05-07T09:08:54;15.50;;;12.65;;
20734;SDS011;10528;52.124;5.196;2023-05-07T09:11:25;16.95;;;13.40;;
20734;SDS011;10528;52.124;5.196;2023-05-07T09:13:54;15.40;;;13.20;;
20734;SDS011;10528;52.124;5.196;2023-05-07T09:16:25;14.20;;;12.75;;
20734;SDS011;10528;52.124;5.196;2023-05-07T09:18:54;13.75;;;12.05;;
20734;SDS011;10528;52.124;5.196;2023-05-07T09:21:22;14.73;;;11.00;;
20734;SDS011;10528;52.124;5.196;2023-05-07T09:23:52;12.15;;;10.80;;
20734;SDS011;10528;52.124;5.196;2023-05-07T09:26:31;13.10;;;10.40;;
20734;SDS011;10528;52.124;5.196;2023-05-07T09:28:59;13.65;;;11.02;;
20734;SDS011;10528;52.124;5.196;2023-05-07T09:31:27;14.20;;;11.57;;
20734;SDS011;10528;52.124;5.196;2023-05-07T09:33:54;13.43;;;10.07;;
20734;SDS011;10528;52.124;5.196;2023-05-07T09:36:24;14.88;;;10.90;;
20734;SDS011;10528;52.124;5.196;2023-05-07T09:38:53;12.27;;;10.52;;
20734;SDS011;10528;52.124;5.196;2023-05-07T09:41:19;12.07;;;9.88;;
20734;SDS011;10528;52.124;5.196;2023-05-07T09:44:12;12.27;;;10.23;;
20734;SDS011;10528;52.124;5.196;2023-05-07T09:46:44;12.32;;;10.73;;
20734;SDS011;10528;52.124;5.196;2023-05-07T09:49:23;11.35;;;9.85;;
20734;SDS011;10528;52.124;5.196;2023-05-07T09:51:59;14.77;;;10.60;;
20734;SDS011;10528;52.124;5.196;2023-05-07T09:54:31;12.23;;;10.27;;
20734;SDS011;10528;52.124;5.196;2023-05-07T09:57:05;15.98;;;12.10;;
20734;SDS011;10528;52.124;5.196;2023-05-07T09:59:33;15.30;;;12.63;;
20734;SDS011;10528;52.124;5.196;2023-05-07T10:02:07;14.25;;;11.80;;
20734;SDS011;10528;52.124;5.196;2023-05-07T10:04:45;11.73;;;10.23;;
20734;SDS011;10528;52.124;5.196;2023-05-07T10:07:18;10.35;;;8.30;;
20734;SDS011;10528;52.124;5.196;2023-05-07T10:09:47;9.40;;;6.47;;
20734;SDS011;10528;52.124;5.196;2023-05-07T10:12:23;8.35;;;6.22;;
20734;SDS011;10528;52.124;5.196;2023-05-07T10:14:51;7.05;;;4.90;;
20734;SDS011;10528;52.124;5.196;2023-05-07T10:17:21;6.15;;;3.80;;
20734;SDS011;10528;52.124;5.196;2023-05-07T10:19:50;7.15;;;3.78;;
20734;SDS011;10528;52.124;5.196;2023-05-07T10:22:21;5.32;;;3.60;;
20734;SDS011;10528;52.124;5.196;2023-05-07T10:24:51;6.88;;;5.05;;
20734;SDS011;10528;52.124;5.196;2023-05-07T10:27:21;6.70;;;4.05;;
20734;SDS011;10528;52.124;5.196;2023-05-07T10:30:05;6.57;;;4.28;;
20734;SDS011;10528;52.124;5.196;2023-05-07T10:32:51;5.53;;;3.88;;
20734;SDS011;10528;52.124;5.196;2023-05-07T10:35:29;9.20;;;4.78;;
20734;SDS011;10528;52.124;5.196;2023-05-07T10:38:02;6.43;;;5.35;;
20734;SDS011;10528;52.124;5.196;2023-05-07T10:40:34;7.53;;;4.78;;
20734;SDS011;10528;52.124;5.196;2023-05-07T10:43:03;6.32;;;4.45;;
20734;SDS011;10528;52.124;5.196;2023-05-07T10:45:44;5.97;;;3.53;;
20734;SDS011;10528;52.124;5.196;2023-05-07T10:57:51;9.07;;;4.95;;
20734;SDS011;10528;52.124;5.196;2023-05-07T11:03:07;6.18;;;3.97;;
20734;SDS011;10528;52.124;5.196;2023-05-07T11:05:43;8.75;;;5.07;;
20734;SDS011;10528;52.124;5.196;2023-05-07T11:08:24;6.82;;;4.22;;
20734;SDS011;10528;52.124;5.196;2023-05-07T11:11:00;4.40;;;3.60;;
20734;SDS011;10528;52.124;5.196;2023-05-07T11:13:46;6.53;;;3.70;;
20734;SDS011;10528;52.124;5.196;2023-05-07T11:16:28;6.15;;;3.58;;
20734;SDS011;10528;52.124;5.196;2023-05-07T11:19:04;7.70;;;4.35;;
20734;SDS011;10528;52.124;5.196;2023-05-07T11:21:41;6.40;;;4.82;;
20734;SDS011;10528;52.124;5.196;2023-05-07T11:24:15;7.55;;;5.28;;
20734;SDS011;10528;52.124;5.196;2023-05-07T11:26:49;7.18;;;5.00;;
20734;SDS011;10528;52.124;5.196;2023-05-07T11:29:19;9.15;;;6.05;;
20734;SDS011;10528;52.124;5.196;2023-05-07T11:31:54;7.63;;;5.63;;
20734;SDS011;10528;52.124;5.196;2023-05-07T11:34:25;9.05;;;6.00;;
20734;SDS011;10528;52.124;5.196;2023-05-07T11:36:55;7.72;;;5.55;;
20734;SDS011;10528;52.124;5.196;2023-05-07T11:39:37;7.43;;;5.95;;
20734;SDS011;10528;52.124;5.196;2023-05-07T11:42:04;9.35;;;6.53;;
20734;SDS011;10528;52.124;5.196;2023-05-07T11:44:41;8.90;;;5.07;;
20734;SDS011;10528;52.124;5.196;2023-05-07T11:47:16;7.03;;;5.20;;
20734;SDS011;10528;52.124;5.196;2023-05-07T11:49:48;7.32;;;5.53;;
20734;SDS011;10528;52.124;5.196;2023-05-07T11:52:18;8.73;;;5.95;;
20734;SDS011;10528;52.124;5.196;2023-05-07T11:57:21;8.30;;;6.68;;
20734;SDS011;10528;52.124;5.196;2023-05-07T12:00:01;10.27;;;5.22;;
20734;SDS011;10528;52.124;5.196;2023-05-07T12:02:39;9.50;;;6.97;;
20734;SDS011;10528;52.124;5.196;2023-05-07T12:05:08;9.43;;;7.20;;
20734;SDS011;10528;52.124;5.196;2023-05-07T12:07:36;9.75;;;6.55;;
20734;SDS011;10528;52.124;5.196;2023-05-07T12:10:06;7.30;;;4.90;;
20734;SDS011;10528;52.124;5.196;2023-05-07T12:12:40;8.82;;;5.65;;
20734;SDS011;10528;52.124;5.196;2023-05-07T12:15:10;7.80;;;5.50;;
20734;SDS011;10528;52.124;5.196;2023-05-07T12:17:41;9.38;;;5.75;;
20734;SDS011;10528;52.124;5.196;2023-05-07T12:20:09;9.65;;;5.55;;
20734;SDS011;10528;52.124;5.196;2023-05-07T12:22:36;8.82;;;5.95;;
20734;SDS011;10528;52.124;5.196;2023-05-07T12:25:03;11.07;;;5.63;;
20734;SDS011;10528;52.124;5.196;2023-05-07T12:27:31;7.47;;;6.22;;
20734;SDS011;10528;52.124;5.196;2023-05-07T12:29:58;10.70;;;6.80;;
20734;SDS011;10528;52.124;5.196;2023-05-07T12:32:25;6.82;;;5.30;;
20734;SDS011;10528;52.124;5.196;2023-05-07T12:34:52;7.47;;;5.35;;
20734;SDS011;10528;52.124;5.196;2023-05-07T12:37:23;7.85;;;5.78;;
20734;SDS011;10528;52.124;5.196;2023-05-07T12:40:04;7.63;;;5.22;;
20734;SDS011;10528;52.124;5.196;2023-05-07T12:42:35;9.00;;;5.57;;
20734;SDS011;10528;52.124;5.196;2023-05-07T12:47:38;8.27;;;4.82;;
20734;SDS011;10528;52.124;5.196;2023-05-07T12:50:06;11.35;;;7.45;;
20734;SDS011;10528;52.124;5.196;2023-05-07T12:52:33;9.00;;;8.05;;
20734;SDS011;10528;52.124;5.196;2023-05-07T12:55:04;9.43;;;7.25;;
20734;SDS011;10528;52.124;5.196;2023-05-07T12:57:38;9.65;;;7.43;;
20734;SDS011;10528;52.124;5.196;2023-05-07T13:00:07;10.52;;;8.00;;
20734;SDS011;10528;52.124;5.196;2023-05-07T13:02:39;10.43;;;7.22;;
20734;SDS011;10528;52.124;5.196;2023-05-07T13:05:08;7.00;;;5.10;;
20734;SDS011;10528;52.124;5.196;2023-05-07T13:07:35;7.30;;;5.07;;
20734;SDS011;10528;52.124;5.196;2023-05-07T13:10:04;7.32;;;4.88;;
20734;SDS011;10528;52.124;5.196;2023-05-07T13:12:31;12.77;;;5.07;;
20734;SDS011;10528;52.124;5.196;2023-05-07T13:14:58;8.70;;;5.18;;
20734;SDS011;10528;52.124;5.196;2023-05-07T13:17:25;8.02;;;5.20;;
20734;SDS011;10528;52.124;5.196;2023-05-07T13:19:52;7.53;;;5.15;;
20734;SDS011;10528;52.124;5.196;2023-05-07T13:22:19;8.50;;;7.18;;
20734;SDS011;10528;52.124;5.196;2023-05-07T13:24:46;13.50;;;9.90;;
20734;SDS011;10528;52.124;5.196;2023-05-07T13:27:13;13.50;;;8.63;;
20734;SDS011;10528;52.124;5.196;2023-05-07T13:29:40;10.93;;;9.73;;
20734;SDS011;10528;52.124;5.196;2023-05-07T13:32:07;10.15;;;8.70;;
20734;SDS011;10528;52.124;5.196;2023-05-07T13:34:34;10.25;;;9.05;;
20734;SDS011;10528;52.124;5.196;2023-05-07T13:37:00;13.88;;;11.30;;
20734;SDS011;10528;52.124;5.196;2023-05-07T13:39:27;13.00;;;11.60;;
20734;SDS011;10528;52.124;5.196;2023-05-07T13:41:54;10.98;;;9.00;;
20734;SDS011;10528;52.124;5.196;2023-05-07T13:44:21;11.88;;;8.75;;
20734;SDS011;10528;52.124;5.196;2023-05-07T13:46:48;10.02;;;8.75;;
20734;SDS011;10528;52.124;5.196;2023-05-07T13:49:15;11.18;;;8.27;;
20734;SDS011;10528;52.124;5.196;2023-05-07T13:51:42;9.15;;;7.25;;
20734;SDS011;10528;52.124;5.196;2023-05-07T13:54:08;9.35;;;6.80;;
20734;SDS011;10528;52.124;5.196;2023-05-07T13:56:35;8.52;;;6.65;;
20734;SDS011;10528;52.124;5.196;2023-05-07T13:59:02;8.30;;;5.30;;
20734;SDS011;10528;52.124;5.196;2023-05-07T14:01:30;6.18;;;4.00;;
20734;SDS011;10528;52.124;5.196;2023-05-07T14:03:57;16.65;;;4.30;;
20734;SDS011;10528;52.124;5.196;2023-05-07T14:06:26;6.93;;;3.35;;
20734;SDS011;10528;52.124;5.196;2023-05-07T14:08:52;7.60;;;2.80;;
20734;SDS011;10528;52.124;5.196;2023-05-07T14:11:19;7.07;;;2.80;;
20734;SDS011;10528;52.124;5.196;2023-05-07T14:13:47;9.65;;;2.85;;
20734;SDS011;10528;52.124;5.196;2023-05-07T14:16:14;6.45;;;2.28;;
20734;SDS011;10528;52.124;5.196;2023-05-07T14:18:41;5.05;;;2.47;;
20734;SDS011;10528;52.124;5.196;2023-05-07T14:21:08;4.88;;;1.92;;
20734;SDS011;10528;52.124;5.196;2023-05-07T14:23:36;5.22;;;1.92;;
20734;SDS011;10528;52.124;5.196;2023-05-07T14:26:02;4.88;;;1.77;;
20734;SDS011;10528;52.124;5.196;2023-05-07T14:28:29;3.40;;;1.67;;
20734;SDS011;10528;52.124;5.196;2023-05-07T14:30:57;4.85;;;1.60;;
20734;SDS011;10528;52.124;5.196;2023-05-07T14:33:24;4.50;;;2.15;;
20734;SDS011;10528;52.124;5.196;2023-05-07T14:35:51;3.08;;;1.60;;
20734;SDS011;10528;52.124;5.196;2023-05-07T14:38:18;7.05;;;4.05;;
20734;SDS011;10528;52.124;5.196;2023-05-07T14:40:45;8.40;;;5.60;;
20734;SDS011;10528;52.124;5.196;2023-05-07T14:43:12;10.10;;;6.38;;
20734;SDS011;10528;52.124;5.196;2023-05-07T14:45:39;10.02;;;7.20;;
20734;SDS011;10528;52.124;5.196;2023-05-07T14:48:06;9.43;;;6.78;;
20734;SDS011;10528;52.124;5.196;2023-05-07T14:50:35;7.60;;;6.03;;
20734;SDS011;10528;52.124;5.196;2023-05-07T14:53:02;8.18;;;6.07;;
20734;SDS011;10528;52.124;5.196;2023-05-07T14:55:29;9.40;;;6.40;;
20734;SDS011;10528;52.124;5.196;2023-05-07T14:57:59;8.43;;;6.28;;
20734;SDS011;10528;52.124;5.196;2023-05-07T15:00:26;6.03;;;4.95;;
20734;SDS011;10528;52.124;5.196;2023-05-07T15:02:55;6.22;;;4.43;;